sensor_id;sensor_type;location;lat;lon;timestamp;temperature;humidity
25991;DHT22;13779;-33.886;151.198;2023-03-01T00:02:18;25.20;99.90
25991;DHT22;13779;-33.886;151.198;2023-03-01T00:04:48;25.30;99.90
25991;DHT22;13779;-33.886;151.198;2023-03-01T00:07:19;25.30;99.90
25991;DHT22;13779;-33.886;151.198;2023-03-01T00:09:49;25.30;99.90
25991;DHT22;13779;-33.886;151.198;2023-03-01T00:12:20;25.30;99.90
25991;DHT22;13779;-33.886;151.198;2023-03-01T00:14:51;25.30;99.90
25991;DHT22;13779;-33.886;151.198;2023-03-01T00:17:21;25.30;99.90
25991;DHT22;13779;-33.886;151.198;2023-03-01T00:19:52;25.40;99.90
25991;DHT22;13779;-33.886;151.198;2023-03-01T00:22:22;25.50;99.90
25991;DHT22;13779;-33.886;151.198;2023-03-01T00:24:56;25.50;99.90
25991;DHT22;13779;-33.886;151.198;2023-03-01T00:27:27;25.50;99.90
25991;DHT22;13779;-33.886;151.198;2023-03-01T00:29:57;25.60;99.90
25991;DHT22;13779;-33.886;151.198;2023-03-01T00:32:28;25.60;99.90
25991;DHT22;13779;-33.886;151.198;2023-03-01T00:34:59;25.70;99.90
25991;DHT22;13779;-33.886;151.198;2023-03-01T00:37:29;25.80;99.90
25991;DHT22;13779;-33.886;151.198;2023-03-01T00:40:00;25.90;99.90
25991;DHT22;13779;-33.886;151.198;2023-03-01T00:42:30;25.90;99.90
25991;DHT22;13779;-33.886;151.198;2023-03-01T00:45:01;25.90;99.90
25991;DHT22;13779;-33.886;151.198;2023-03-01T00:47:31;25.90;99.90
25991;DHT22;13779;-33.886;151.198;2023-03-01T00:50:02;26.00;99.90
25991;DHT22;13779;-33.886;151.198;2023-03-01T00:52:34;25.90;99.90
25991;DHT22;13779;-33.886;151.198;2023-03-01T00:55:05;26.00;99.90
25991;DHT22;13779;-33.886;151.198;2023-03-01T00:57:36;25.80;99.90
25991;DHT22;13779;-33.886;151.198;2023-03-01T01:00:10;25.80;99.90
25991;DHT22;13779;-33.886;151.198;2023-03-01T01:02:41;25.80;99.90
25991;DHT22;13779;-33.886;151.198;2023-03-01T01:05:11;25.80;99.90
25991;DHT22;13779;-33.886;151.198;2023-03-01T01:07:42;25.90;99.90
25991;DHT22;13779;-33.886;151.198;2023-03-01T01:10:12;25.80;99.90
25991;DHT22;13779;-33.886;151.198;2023-03-01T01:12:46;25.80;99.90
25991;DHT22;13779;-33.886;151.198;2023-03-01T01:15:17;25.70;99.90
25991;DHT22;13779;-33.886;151.198;2023-03-01T01:17:48;25.70;99.90
25991;DHT22;13779;-33.886;151.198;2023-03-01T01:20:18;25.80;99.90
25991;DHT22;13779;-33.886;151.198;2023-03-01T01:22:50;25.70;99.90
25991;DHT22;13779;-33.886;151.198;2023-03-01T01:25:21;25.70;99.90
25991;DHT22;13779;-33.886;151.198;2023-03-01T01:27:52;25.60;99.90
25991;DHT22;13779;-33.886;151.198;2023-03-01T01:30:22;25.60;99.90
25991;DHT22;13779;-33.886;151.198;2023-03-01T01:32:55;25.50;99.90
25991;DHT22;13779;-33.886;151.198;2023-03-01T01:35:27;25.50;99.90
25991;DHT22;13779;-33.886;151.198;2023-03-01T01:37:57;25.40;99.90
25991;DHT22;13779;-33.886;151.198;2023-03-01T01:40:27;25.40;99.90
25991;DHT22;13779;-33.886;151.198;2023-03-01T01:42:58;25.50;99.90
25991;DHT22;13779;-33.886;151.198;2023-03-01T01:45:32;25.60;99.90
25991;DHT22;13779;-33.886;151.198;2023-03-01T01:48:07;25.60;99.90
25991;DHT22;13779;-33.886;151.198;2023-03-01T01:50:41;25.60;99.90
25991;DHT22;13779;-33.886;151.198;2023-03-01T01:53:18;25.60;99.90
25991;DHT22;13779;-33.886;151.198;2023-03-01T01:55:54;25.60;99.90
25991;DHT22;13779;-33.886;151.198;2023-03-01T01:58:29;25.70;99.90
25991;DHT22;13779;-33.886;151.198;2023-03-01T02:01:00;25.70;99.90
25991;DHT22;13779;-33.886;151.198;2023-03-01T02:03:33;25.80;99.90
25991;DHT22;13779;-33.886;151.198;2023-03-01T02:06:32;25.90;99.90
25991;DHT22;13779;-33.886;151.198;2023-03-01T02:09:11;25.90;99.90
25991;DHT22;13779;-33.886;151.198;2023-03-01T02:11:43;25.80;99.90
25991;DHT22;13779;-33.886;151.198;2023-03-01T02:14:15;25.80;99.90
25991;DHT22;13779;-33.886;151.198;2023-03-01T02:16:46;25.90;99.90
25991;DHT22;13779;-33.886;151.198;2023-03-01T02:19:46;25.90;99.90
25991;DHT22;13779;-33.886;151.198;2023-03-01T02:22:45;25.90;99.90
25991;DHT22;13779;-33.886;151.198;2023-03-01T02:30:49;26.00;99.90
25991;DHT22;13779;-33.886;151.198;2023-03-01T02:33:39;26.10;99.90
25991;DHT22;13779;-33.886;151.198;2023-03-01T02:36:22;26.10;99.90
25991;DHT22;13779;-33.886;151.198;2023-03-01T02:38:57;26.20;99.90
25991;DHT22;13779;-33.886;151.198;2023-03-01T02:41:30;26.30;99.90
25991;DHT22;13779;-33.886;151.198;2023-03-01T02:44:02;26.30;99.90
25991;DHT22;13779;-33.886;151.198;2023-03-01T02:46:32;26.20;99.90
25991;DHT22;13779;-33.886;151.198;2023-03-01T02:49:16;26.10;99.90
25991;DHT22;13779;-33.886;151.198;2023-03-01T02:52:08;26.00;99.90
25991;DHT22;13779;-33.886;151.198;2023-03-01T02:55:08;26.00;99.90
25991;DHT22;13779;-33.886;151.198;2023-03-01T02:57:43;25.90;99.90
25991;DHT22;13779;-33.886;151.198;2023-03-01T03:00:40;25.90;99.90
25991;DHT22;13779;-33.886;151.198;2023-03-01T03:03:19;25.90;99.90
25991;DHT22;13779;-33.886;151.198;2023-03-01T03:05:50;25.90;99.90
25991;DHT22;13779;-33.886;151.198;2023-03-01T03:08:20;26.00;99.90
25991;DHT22;13779;-33.886;151.198;2023-03-01T03:10:53;26.00;99.90
25991;DHT22;13779;-33.886;151.198;2023-03-01T03:13:23;26.10;99.90
25991;DHT22;13779;-33.886;151.198;2023-03-01T03:15:58;26.10;99.90
25991;DHT22;13779;-33.886;151.198;2023-03-01T03:18:28;26.10;99.90
25991;DHT22;13779;-33.886;151.198;2023-03-01T03:20:58;26.20;99.90
25991;DHT22;13779;-33.886;151.198;2023-03-01T03:23:28;26.20;99.90
25991;DHT22;13779;-33.886;151.198;2023-03-01T03:25:59;26.20;99.90
25991;DHT22;13779;-33.886;151.198;2023-03-01T03:28:29;26.20;99.90
25991;DHT22;13779;-33.886;151.198;2023-03-01T03:31:00;26.30;99.90
25991;DHT22;13779;-33.886;151.198;2023-03-01T03:33:36;26.30;99.90
25991;DHT22;13779;-33.886;151.198;2023-03-01T03:36:07;26.20;99.90
25991;DHT22;13779;-33.886;151.198;2023-03-01T03:38:42;26.00;99.90
25991;DHT22;13779;-33.886;151.198;2023-03-01T03:41:13;26.00;99.90
25991;DHT22;13779;-33.886;151.198;2023-03-01T03:43:44;25.90;99.90
25991;DHT22;13779;-33.886;151.198;2023-03-01T03:46:14;25.80;99.90
25991;DHT22;13779;-33.886;151.198;2023-03-01T03:48:45;25.80;99.90
25991;DHT22;13779;-33.886;151.198;2023-03-01T03:51:15;25.70;99.90
25991;DHT22;13779;-33.886;151.198;2023-03-01T03:53:46;25.80;99.90
25991;DHT22;13779;-33.886;151.198;2023-03-01T03:56:16;25.80;99.90
25991;DHT22;13779;-33.886;151.198;2023-03-01T03:58:47;25.90;99.90
25991;DHT22;13779;-33.886;151.198;2023-03-01T04:01:17;26.00;99.90
25991;DHT22;13779;-33.886;151.198;2023-03-01T04:03:47;26.10;99.90
25991;DHT22;13779;-33.886;151.198;2023-03-01T04:06:17;26.20;99.90
25991;DHT22;13779;-33.886;151.198;2023-03-01T04:08:47;26.10;99.90
25991;DHT22;13779;-33.886;151.198;2023-03-01T04:11:27;26.00;99.90
25991;DHT22;13779;-33.886;151.198;2023-03-01T04:13:58;25.90;99.90
25991;DHT22;13779;-33.886;151.198;2023-03-01T04:16:29;25.90;99.90
25991;DHT22;13779;-33.886;151.198;2023-03-01T04:19:00;25.90;99.90
25991;DHT22;13779;-33.886;151.198;2023-03-01T04:21:30;25.80;99.90
25991;DHT22;13779;-33.886;151.198;2023-03-01T04:24:00;25.90;99.90
25991;DHT22;13779;-33.886;151.198;2023-03-01T04:26:32;25.90;99.90
25991;DHT22;13779;-33.886;151.198;2023-03-01T04:29:34;25.90;99.90
25991;DHT22;13779;-33.886;151.198;2023-03-01T04:32:04;25.90;99.90
25991;DHT22;13779;-33.886;151.198;2023-03-01T04:34:34;26.00;99.90
25991;DHT22;13779;-33.886;151.198;2023-03-01T04:37:04;25.90;99.90
25991;DHT22;13779;-33.886;151.198;2023-03-01T04:39:35;25.90;99.90
25991;DHT22;13779;-33.886;151.198;2023-03-01T04:42:18;25.90;99.90
25991;DHT22;13779;-33.886;151.198;2023-03-01T04:44:48;25.90;99.90
25991;DHT22;13779;-33.886;151.198;2023-03-01T04:47:20;25.90;99.90
25991;DHT22;13779;-33.886;151.198;2023-03-01T04:49:51;25.80;99.90
25991;DHT22;13779;-33.886;151.198;2023-03-01T04:52:22;25.80;99.90
25991;DHT22;13779;-33.886;151.198;2023-03-01T04:54:53;25.80;99.90
25991;DHT22;13779;-33.886;151.198;2023-03-01T04:57:24;25.80;99.90
25991;DHT22;13779;-33.886;151.198;2023-03-01T04:59:54;25.80;99.90
25991;DHT22;13779;-33.886;151.198;2023-03-01T05:02:25;25.80;99.90
25991;DHT22;13779;-33.886;151.198;2023-03-01T05:04:56;25.80;99.90
25991;DHT22;13779;-33.886;151.198;2023-03-01T05:07:27;25.80;99.90
25991;DHT22;13779;-33.886;151.198;2023-03-01T05:09:57;25.80;99.90
25991;DHT22;13779;-33.886;151.198;2023-03-01T05:12:28;25.80;99.90
25991;DHT22;13779;-33.886;151.198;2023-03-01T05:14:58;25.80;99.90
25991;DHT22;13779;-33.886;151.198;2023-03-01T05:17:29;25.70;99.90
25991;DHT22;13779;-33.886;151.198;2023-03-01T05:20:00;25.70;99.90
25991;DHT22;13779;-33.886;151.198;2023-03-01T05:22:30;25.70;99.90
25991;DHT22;13779;-33.886;151.198;2023-03-01T05:25:02;25.70;99.90
25991;DHT22;13779;-33.886;151.198;2023-03-01T05:27:33;25.60;99.90
25991;DHT22;13779;-33.886;151.198;2023-03-01T05:30:03;25.50;99.90
25991;DHT22;13779;-33.886;151.198;2023-03-01T05:32:47;25.40;99.90
25991;DHT22;13779;-33.886;151.198;2023-03-01T05:35:18;25.40;99.90
25991;DHT22;13779;-33.886;151.198;2023-03-01T05:37:50;25.30;99.90
25991;DHT22;13779;-33.886;151.198;2023-03-01T05:40:23;25.20;99.90
25991;DHT22;13779;-33.886;151.198;2023-03-01T05:42:55;25.20;99.90
25991;DHT22;13779;-33.886;151.198;2023-03-01T05:45:29;25.30;99.90
25991;DHT22;13779;-33.886;151.198;2023-03-01T05:48:01;25.10;99.90
25991;DHT22;13779;-33.886;151.198;2023-03-01T05:50:37;24.90;99.90
25991;DHT22;13779;-33.886;151.198;2023-03-01T05:53:14;24.90;99.90
25991;DHT22;13779;-33.886;151.198;2023-03-01T05:55:45;24.90;99.90
25991;DHT22;13779;-33.886;151.198;2023-03-01T05:58:19;24.80;99.90
25991;DHT22;13779;-33.886;151.198;2023-03-01T06:00:50;24.80;99.90
25991;DHT22;13779;-33.886;151.198;2023-03-01T06:03:22;24.80;99.90
25991;DHT22;13779;-33.886;151.198;2023-03-01T06:05:56;24.60;99.90
25991;DHT22;13779;-33.886;151.198;2023-03-01T06:08:27;24.50;99.90
25991;DHT22;13779;-33.886;151.198;2023-03-01T06:10:57;24.50;99.90
25991;DHT22;13779;-33.886;151.198;2023-03-01T06:13:27;24.50;99.90
25991;DHT22;13779;-33.886;151.198;2023-03-01T06:15:57;24.50;99.90
25991;DHT22;13779;-33.886;151.198;2023-03-01T06:18:27;24.50;99.90
25991;DHT22;13779;-33.886;151.198;2023-03-01T06:20:57;24.50;99.90
25991;DHT22;13779;-33.886;151.198;2023-03-01T06:23:27;24.50;99.90
25991;DHT22;13779;-33.886;151.198;2023-03-01T06:25:57;24.50;99.90
25991;DHT22;13779;-33.886;151.198;2023-03-01T06:28:28;24.50;99.90
25991;DHT22;13779;-33.886;151.198;2023-03-01T06:30:58;24.40;99.90
25991;DHT22;13779;-33.886;151.198;2023-03-01T06:33:28;24.30;99.90
25991;DHT22;13779;-33.886;151.198;2023-03-01T06:35:58;24.30;99.90
25991;DHT22;13779;-33.886;151.198;2023-03-01T06:38:28;24.30;99.90
25991;DHT22;13779;-33.886;151.198;2023-03-01T06:40:58;24.30;99.90
25991;DHT22;13779;-33.886;151.198;2023-03-01T06:43:28;24.30;99.90
25991;DHT22;13779;-33.886;151.198;2023-03-01T06:45:59;24.30;99.90
25991;DHT22;13779;-33.886;151.198;2023-03-01T06:48:30;24.30;99.90
25991;DHT22;13779;-33.886;151.198;2023-03-01T06:51:01;24.20;99.90
25991;DHT22;13779;-33.886;151.198;2023-03-01T06:53:32;24.20;99.90
25991;DHT22;13779;-33.886;151.198;2023-03-01T06:56:02;24.20;99.90
25991;DHT22;13779;-33.886;151.198;2023-03-01T06:58:33;24.30;99.90
25991;DHT22;13779;-33.886;151.198;2023-03-01T07:01:08;24.30;99.90
25991;DHT22;13779;-33.886;151.198;2023-03-01T07:03:38;24.40;99.90
25991;DHT22;13779;-33.886;151.198;2023-03-01T07:06:09;24.40;99.90
25991;DHT22;13779;-33.886;151.198;2023-03-01T07:08:39;24.40;99.90
25991;DHT22;13779;-33.886;151.198;2023-03-01T07:11:10;24.40;99.90
25991;DHT22;13779;-33.886;151.198;2023-03-01T07:13:41;24.30;99.90
25991;DHT22;13779;-33.886;151.198;2023-03-01T07:16:11;24.40;99.90
25991;DHT22;13779;-33.886;151.198;2023-03-01T07:18:43;24.40;99.90
25991;DHT22;13779;-33.886;151.198;2023-03-01T07:21:15;24.40;99.90
25991;DHT22;13779;-33.886;151.198;2023-03-01T07:23:48;24.30;99.90
25991;DHT22;13779;-33.886;151.198;2023-03-01T07:26:18;24.30;99.90
25991;DHT22;13779;-33.886;151.198;2023-03-01T07:28:51;24.30;99.90
25991;DHT22;13779;-33.886;151.198;2023-03-01T07:31:22;24.30;99.90
25991;DHT22;13779;-33.886;151.198;2023-03-01T07:33:52;24.30;99.90
25991;DHT22;13779;-33.886;151.198;2023-03-01T07:36:23;24.30;99.90
25991;DHT22;13779;-33.886;151.198;2023-03-01T07:38:54;24.30;99.90
25991;DHT22;13779;-33.886;151.198;2023-03-01T07:41:25;24.30;99.90
25991;DHT22;13779;-33.886;151.198;2023-03-01T07:43:56;24.30;99.90
25991;DHT22;13779;-33.886;151.198;2023-03-01T07:46:26;24.30;99.90
25991;DHT22;13779;-33.886;151.198;2023-03-01T07:48:57;24.30;99.90
25991;DHT22;13779;-33.886;151.198;2023-03-01T07:51:29;24.20;99.90
25991;DHT22;13779;-33.886;151.198;2023-03-01T07:53:59;24.20;99.90
25991;DHT22;13779;-33.886;151.198;2023-03-01T07:56:30;24.10;99.90
25991;DHT22;13779;-33.886;151.198;2023-03-01T07:59:00;24.10;99.90
25991;DHT22;13779;-33.886;151.198;2023-03-01T08:01:31;24.10;99.90
25991;DHT22;13779;-33.886;151.198;2023-03-01T08:04:01;24.10;99.90
25991;DHT22;13779;-33.886;151.198;2023-03-01T08:06:34;24.10;99.90
25991;DHT22;13779;-33.886;151.198;2023-03-01T08:09:05;24.10;99.90
25991;DHT22;13779;-33.886;151.198;2023-03-01T08:11:37;24.10;99.90
25991;DHT22;13779;-33.886;151.198;2023-03-01T08:14:08;24.10;99.90
25991;DHT22;13779;-33.886;151.198;2023-03-01T08:16:41;24.10;99.90
25991;DHT22;13779;-33.886;151.198;2023-03-01T08:19:12;24.10;99.90
25991;DHT22;13779;-33.886;151.198;2023-03-01T08:21:43;24.20;99.90
25991;DHT22;13779;-33.886;151.198;2023-03-01T08:24:14;24.10;99.90
25991;DHT22;13779;-33.886;151.198;2023-03-01T08:26:44;24.10;99.90
25991;DHT22;13779;-33.886;151.198;2023-03-01T08:29:15;24.10;99.90
25991;DHT22;13779;-33.886;151.198;2023-03-01T08:31:46;24.10;99.90
25991;DHT22;13779;-33.886;151.198;2023-03-01T08:34:18;24.10;99.90
25991;DHT22;13779;-33.886;151.198;2023-03-01T08:36:49;24.10;99.90
25991;DHT22;13779;-33.886;151.198;2023-03-01T08:39:21;24.10;99.90
25991;DHT22;13779;-33.886;151.198;2023-03-01T08:41:51;24.10;99.90
25991;DHT22;13779;-33.886;151.198;2023-03-01T08:44:22;24.10;99.90
25991;DHT22;13779;-33.886;151.198;2023-03-01T08:46:53;24.00;99.90
25991;DHT22;13779;-33.886;151.198;2023-03-01T08:49:25;24.00;99.90
25991;DHT22;13779;-33.886;151.198;2023-03-01T08:51:56;24.00;99.90
25991;DHT22;13779;-33.886;151.198;2023-03-01T08:54:27;24.00;99.90
25991;DHT22;13779;-33.886;151.198;2023-03-01T08:57:00;24.00;99.90
25991;DHT22;13779;-33.886;151.198;2023-03-01T08:59:31;23.90;99.90
25991;DHT22;13779;-33.886;151.198;2023-03-01T09:02:12;23.90;99.90
25991;DHT22;13779;-33.886;151.198;2023-03-01T09:04:43;23.90;99.90
25991;DHT22;13779;-33.886;151.198;2023-03-01T09:07:14;23.90;99.90
25991;DHT22;13779;-33.886;151.198;2023-03-01T09:09:46;24.00;99.90
25991;DHT22;13779;-33.886;151.198;2023-03-01T09:12:16;24.00;99.90
25991;DHT22;13779;-33.886;151.198;2023-03-01T09:14:47;24.00;99.90
25991;DHT22;13779;-33.886;151.198;2023-03-01T09:17:21;24.00;99.90
25991;DHT22;13779;-33.886;151.198;2023-03-01T09:19:51;23.90;99.90
25991;DHT22;13779;-33.886;151.198;2023-03-01T09:22:22;23.90;99.90
25991;DHT22;13779;-33.886;151.198;2023-03-01T09:24:53;23.90;99.90
25991;DHT22;13779;-33.886;151.198;2023-03-01T09:27:23;23.90;99.90
25991;DHT22;13779;-33.886;151.198;2023-03-01T09:29:54;24.00;99.90
25991;DHT22;13779;-33.886;151.198;2023-03-01T09:32:31;24.00;99.90
25991;DHT22;13779;-33.886;151.198;2023-03-01T09:35:05;24.00;99.90
25991;DHT22;13779;-33.886;151.198;2023-03-01T09:37:37;24.00;99.90
25991;DHT22;13779;-33.886;151.198;2023-03-01T09:40:14;24.00;99.90
25991;DHT22;13779;-33.886;151.198;2023-03-01T09:43:05;24.00;99.90
25991;DHT22;13779;-33.886;151.198;2023-03-01T09:45:41;24.00;99.90
25991;DHT22;13779;-33.886;151.198;2023-03-01T09:48:20;23.90;99.90
25991;DHT22;13779;-33.886;151.198;2023-03-01T09:50:54;23.90;99.90
25991;DHT22;13779;-33.886;151.198;2023-03-01T09:53:31;23.90;99.90
25991;DHT22;13779;-33.886;151.198;2023-03-01T09:59:28;23.90;99.90
25991;DHT22;13779;-33.886;151.198;2023-03-01T10:10:36;23.90;99.90
25991;DHT22;13779;-33.886;151.198;2023-03-01T10:13:52;23.90;99.90
25991;DHT22;13779;-33.886;151.198;2023-03-01T10:19:05;24.00;99.90
25991;DHT22;13779;-33.886;151.198;2023-03-01T10:21:45;23.90;99.90
25991;DHT22;13779;-33.886;151.198;2023-03-01T10:24:18;23.90;99.90
25991;DHT22;13779;-33.886;151.198;2023-03-01T10:26:59;24.00;99.90
25991;DHT22;13779;-33.886;151.198;2023-03-01T10:29:36;24.00;99.90
25991;DHT22;13779;-33.886;151.198;2023-03-01T10:32:09;24.00;99.90
25991;DHT22;13779;-33.886;151.198;2023-03-01T10:34:41;24.00;99.90
25991;DHT22;13779;-33.886;151.198;2023-03-01T10:37:21;24.00;99.90
25991;DHT22;13779;-33.886;151.198;2023-03-01T10:40:04;24.00;99.90
25991;DHT22;13779;-33.886;151.198;2023-03-01T10:42:48;24.00;99.90
25991;DHT22;13779;-33.886;151.198;2023-03-01T10:50:49;23.90;99.90
25991;DHT22;13779;-33.886;151.198;2023-03-01T10:53:43;23.80;99.90
25991;DHT22;13779;-33.886;151.198;2023-03-01T10:56:18;23.80;99.90
25991;DHT22;13779;-33.886;151.198;2023-03-01T11:01:33;23.70;99.90
25991;DHT22;13779;-33.886;151.198;2023-03-01T11:06:42;23.50;99.90
25991;DHT22;13779;-33.886;151.198;2023-03-01T11:09:22;23.50;99.90
25991;DHT22;13779;-33.886;151.198;2023-03-01T11:11:54;23.50;99.90
25991;DHT22;13779;-33.886;151.198;2023-03-01T11:14:27;23.50;99.90
25991;DHT22;13779;-33.886;151.198;2023-03-01T11:17:05;23.50;99.90
25991;DHT22;13779;-33.886;151.198;2023-03-01T11:19:40;23.50;99.90
25991;DHT22;13779;-33.886;151.198;2023-03-01T11:22:22;23.50;99.90
25991;DHT22;13779;-33.886;151.198;2023-03-01T11:24:55;23.50;99.90
25991;DHT22;13779;-33.886;151.198;2023-03-01T11:27:44;23.60;99.90
25991;DHT22;13779;-33.886;151.198;2023-03-01T11:30:34;23.60;99.90
25991;DHT22;13779;-33.886;151.198;2023-03-01T11:36:33;23.70;99.90
25991;DHT22;13779;-33.886;151.198;2023-03-01T11:44:47;23.70;99.90
25991;DHT22;13779;-33.886;151.198;2023-03-01T11:58:46;23.80;99.90
25991;DHT22;13779;-33.886;151.198;2023-03-01T12:01:58;23.80;99.90
25991;DHT22;13779;-33.886;151.198;2023-03-01T12:10:33;23.70;99.90
25991;DHT22;13779;-33.886;151.198;2023-03-01T12:13:19;23.70;99.90
25991;DHT22;13779;-33.886;151.198;2023-03-01T12:22:01;23.70;99.90
25991;DHT22;13779;-33.886;151.198;2023-03-01T12:33:50;23.60;99.90
25991;DHT22;13779;-33.886;151.198;2023-03-01T12:36:40;23.60;99.90
25991;DHT22;13779;-33.886;151.198;2023-03-01T12:42:09;23.60;99.90
25991;DHT22;13779;-33.886;151.198;2023-03-01T12:50:30;23.60;99.90
25991;DHT22;13779;-33.886;151.198;2023-03-01T12:53:02;23.60;99.90
25991;DHT22;13779;-33.886;151.198;2023-03-01T12:55:38;23.50;99.90
25991;DHT22;13779;-33.886;151.198;2023-03-01T13:12:42;23.70;99.90
25991;DHT22;13779;-33.886;151.198;2023-03-01T13:15:25;23.70;99.90
25991;DHT22;13779;-33.886;151.198;2023-03-01T13:20:50;23.70;99.90
25991;DHT22;13779;-33.886;151.198;2023-03-01T13:26:13;23.70;99.90
25991;DHT22;13779;-33.886;151.198;2023-03-01T13:28:52;23.70;99.90
25991;DHT22;13779;-33.886;151.198;2023-03-01T13:33:59;23.70;99.90
25991;DHT22;13779;-33.886;151.198;2023-03-01T13:39:14;23.70;99.90
25991;DHT22;13779;-33.886;151.198;2023-03-01T13:41:54;23.70;99.90
25991;DHT22;13779;-33.886;151.198;2023-03-01T13:44:35;23.70;99.90
25991;DHT22;13779;-33.886;151.198;2023-03-01T13:49:50;23.70;99.90
25991;DHT22;13779;-33.886;151.198;2023-03-01T13:57:51;23.70;99.90
25991;DHT22;13779;-33.886;151.198;2023-03-01T14:00:38;23.70;99.90
25991;DHT22;13779;-33.886;151.198;2023-03-01T14:03:16;23.70;99.90
25991;DHT22;13779;-33.886;151.198;2023-03-01T14:08:44;23.70;99.90
25991;DHT22;13779;-33.886;151.198;2023-03-01T14:17:06;23.60;99.90
25991;DHT22;13779;-33.886;151.198;2023-03-01T14:19:38;23.60;99.90
25991;DHT22;13779;-33.886;151.198;2023-03-01T14:22:34;23.60;99.90
25991;DHT22;13779;-33.886;151.198;2023-03-01T14:30:51;23.60;99.90
25991;DHT22;13779;-33.886;151.198;2023-03-01T14:33:27;23.60;99.90
25991;DHT22;13779;-33.886;151.198;2023-03-01T14:36:04;23.60;99.90
25991;DHT22;13779;-33.886;151.198;2023-03-01T14:38:44;23.60;99.90
25991;DHT22;13779;-33.886;151.198;2023-03-01T14:41:37;23.70;99.90
25991;DHT22;13779;-33.886;151.198;2023-03-01T14:44:15;23.60;99.90
25991;DHT22;13779;-33.886;151.198;2023-03-01T14:46:51;23.60;99.90
25991;DHT22;13779;-33.886;151.198;2023-03-01T14:49:30;23.70;99.90
25991;DHT22;13779;-33.886;151.198;2023-03-01T14:52:06;23.60;99.90
25991;DHT22;13779;-33.886;151.198;2023-03-01T14:54:48;23.70;99.90
25991;DHT22;13779;-33.886;151.198;2023-03-01T14:57:22;23.60;99.90
25991;DHT22;13779;-33.886;151.198;2023-03-01T14:59:55;23.60;99.90
25991;DHT22;13779;-33.886;151.198;2023-03-01T15:02:28;23.50;99.90
25991;DHT22;13779;-33.886;151.198;2023-03-01T15:05:01;23.60;99.90
25991;DHT22;13779;-33.886;151.198;2023-03-01T15:07:38;23.60;99.90
25991;DHT22;13779;-33.886;151.198;2023-03-01T15:10:25;23.50;99.90
25991;DHT22;13779;-33.886;151.198;2023-03-01T15:12:56;23.50;99.90
25991;DHT22;13779;-33.886;151.198;2023-03-01T15:18:22;23.30;99.90
25991;DHT22;13779;-33.886;151.198;2023-03-01T15:21:05;23.30;99.90
25991;DHT22;13779;-33.886;151.198;2023-03-01T15:23:37;23.20;99.90
25991;DHT22;13779;-33.886;151.198;2023-03-01T15:26:31;23.20;99.90
25991;DHT22;13779;-33.886;151.198;2023-03-01T15:29:02;23.10;99.90
25991;DHT22;13779;-33.886;151.198;2023-03-01T15:31:35;23.00;99.90
25991;DHT22;13779;-33.886;151.198;2023-03-01T15:34:19;23.00;99.90
25991;DHT22;13779;-33.886;151.198;2023-03-01T15:36:53;23.00;99.90
25991;DHT22;13779;-33.886;151.198;2023-03-01T15:39:32;22.90;99.90
25991;DHT22;13779;-33.886;151.198;2023-03-01T15:42:36;22.90;99.90
25991;DHT22;13779;-33.886;151.198;2023-03-01T15:45:20;22.80;99.90
25991;DHT22;13779;-33.886;151.198;2023-03-01T15:48:05;22.70;99.90
25991;DHT22;13779;-33.886;151.198;2023-03-01T15:50:43;22.60;99.90
25991;DHT22;13779;-33.886;151.198;2023-03-01T15:53:15;22.50;99.90
25991;DHT22;13779;-33.886;151.198;2023-03-01T15:55:48;22.60;99.90
25991;DHT22;13779;-33.886;151.198;2023-03-01T15:58:24;22.50;99.90
25991;DHT22;13779;-33.886;151.198;2023-03-01T16:00:55;22.50;99.90
25991;DHT22;13779;-33.886;151.198;2023-03-01T16:03:28;22.50;99.90
25991;DHT22;13779;-33.886;151.198;2023-03-01T16:05:58;22.40;99.90
25991;DHT22;13779;-33.886;151.198;2023-03-01T16:08:30;22.40;99.90
25991;DHT22;13779;-33.886;151.198;2023-03-01T16:11:00;22.30;99.90
25991;DHT22;13779;-33.886;151.198;2023-03-01T16:13:34;22.20;99.90
25991;DHT22;13779;-33.886;151.198;2023-03-01T16:16:04;22.10;99.90
25991;DHT22;13779;-33.886;151.198;2023-03-01T16:18:34;22.20;99.90
25991;DHT22;13779;-33.886;151.198;2023-03-01T16:21:05;22.20;99.90
25991;DHT22;13779;-33.886;151.198;2023-03-01T16:23:35;22.20;99.90
25991;DHT22;13779;-33.886;151.198;2023-03-01T16:26:05;22.20;99.90
25991;DHT22;13779;-33.886;151.198;2023-03-01T16:28:35;22.20;99.90
25991;DHT22;13779;-33.886;151.198;2023-03-01T16:31:05;22.20;99.90
25991;DHT22;13779;-33.886;151.198;2023-03-01T16:33:36;22.10;99.90
25991;DHT22;13779;-33.886;151.198;2023-03-01T16:36:11;22.10;99.90
25991;DHT22;13779;-33.886;151.198;2023-03-01T16:38:41;22.10;99.90
25991;DHT22;13779;-33.886;151.198;2023-03-01T16:41:16;22.20;99.90
25991;DHT22;13779;-33.886;151.198;2023-03-01T16:43:47;22.10;99.90
25991;DHT22;13779;-33.886;151.198;2023-03-01T16:48:49;22.00;99.90
25991;DHT22;13779;-33.886;151.198;2023-03-01T16:51:20;22.00;99.90
25991;DHT22;13779;-33.886;151.198;2023-03-01T16:53:51;22.00;99.90
25991;DHT22;13779;-33.886;151.198;2023-03-01T16:56:21;22.00;99.90
25991;DHT22;13779;-33.886;151.198;2023-03-01T16:58:51;22.00;99.90
25991;DHT22;13779;-33.886;151.198;2023-03-01T17:01:22;22.00;99.90
25991;DHT22;13779;-33.886;151.198;2023-03-01T17:03:55;22.00;99.90
25991;DHT22;13779;-33.886;151.198;2023-03-01T17:06:25;22.10;99.90
25991;DHT22;13779;-33.886;151.198;2023-03-01T17:08:56;22.00;99.90
25991;DHT22;13779;-33.886;151.198;2023-03-01T17:11:27;22.00;99.90
25991;DHT22;13779;-33.886;151.198;2023-03-01T17:13:57;22.00;99.90
25991;DHT22;13779;-33.886;151.198;2023-03-01T17:16:27;22.00;99.90
25991;DHT22;13779;-33.886;151.198;2023-03-01T17:18:58;22.00;99.90
25991;DHT22;13779;-33.886;151.198;2023-03-01T17:21:28;21.90;99.90
25991;DHT22;13779;-33.886;151.198;2023-03-01T17:24:00;22.00;99.90
25991;DHT22;13779;-33.886;151.198;2023-03-01T17:26:30;21.90;99.90
25991;DHT22;13779;-33.886;151.198;2023-03-01T17:29:01;21.90;99.90
25991;DHT22;13779;-33.886;151.198;2023-03-01T17:31:34;21.90;99.90
25991;DHT22;13779;-33.886;151.198;2023-03-01T17:34:04;22.00;99.90
25991;DHT22;13779;-33.886;151.198;2023-03-01T17:36:34;22.00;99.90
25991;DHT22;13779;-33.886;151.198;2023-03-01T17:39:12;22.00;99.90
25991;DHT22;13779;-33.886;151.198;2023-03-01T17:41:42;22.10;99.90
25991;DHT22;13779;-33.886;151.198;2023-03-01T17:44:13;22.10;99.90